Time;durP1;ratioP1;P1;durP2;ratioP2;P2;SDS_P1;SDS_P2;PMS_P1;PMS_P2;Temp;Humidity;BMP_temperature;BMP_pressure;BME280_temperature;BME280_humidity;BME280_pressure;Samples;Min_cycle;Max_cycle;Signal;HPM_P1;HPM_P2
2023/07/30 00:03:26;;;;;;;2.65;1.80;;;;;;;20.98;85.14;98670.16;7225709;40;20273;31
2023/07/30 00:13:50;;;;;;;2.26;1.54;;;;;;;21.13;84.98;98668.59;7253004;40;20563;31
2023/07/30 00:24:28;;;;;;;2.85;1.80;;;;;;;21.05;84.67;98679.91;7350125;39;21145;31
2023/07/30 00:35:07;;;;;;;2.87;1.40;;;;;;;21.07;84.89;98682.37;7314487;39;21332;31
2023/07/30 00:40:40;;;;;;;2.03;1.52;;;;;;;20.95;85.50;98692.59;7252956;40;20356;31
2023/07/30 00:46:00;;;;;;;2.12;1.55;;;;;;;20.88;85.71;98703.72;7185672;40;20325;31
2023/07/30 00:51:32;;;;;;;3.45;1.90;;;;;;;20.86;85.29;98699.53;7217356;40;20582;31
2023/07/30 00:57:08;;;;;;;1.83;1.63;;;;;;;20.86;86.54;98699.53;7239389;40;20273;31
2023/07/30 01:02:40;;;;;;;4.57;1.87;;;;;;;20.85;86.94;98695.13;7291411;39;20360;31
2023/07/30 01:07:57;;;;;;;4.57;2.08;;;;;;;20.82;86.58;98695.63;7216077;40;20277;31
2023/07/30 01:13:33;;;;;;;4.70;2.20;;;;;;;20.75;86.95;98698.53;7217346;40;20249;31
2023/07/30 01:18:53;;;;;;;5.22;2.33;;;;;;;20.82;87.66;98723.03;7212683;40;20274;31
2023/07/30 01:24:26;;;;;;;2.97;2.00;;;;;;;20.83;87.33;98714.56;7221501;40;20279;31
2023/07/30 01:29:58;;;;;;;2.65;2.25;;;;;;;20.81;87.98;98713.97;7277991;40;20253;31
2023/07/30 01:35:30;;;;;;;3.63;2.00;;;;;;;20.82;87.62;98728.50;7228148;40;20340;31
2023/07/30 01:41:01;;;;;;;2.30;2.00;;;;;;;20.87;86.77;98725.88;7237771;40;20270;31
2023/07/30 01:46:18;;;;;;;3.10;2.20;;;;;;;20.94;87.06;98730.13;7201316;40;20442;31
2023/07/30 01:51:35;;;;;;;2.72;2.17;;;;;;;20.99;86.83;98727.47;7223396;40;20326;31
2023/07/30 01:57:09;;;;;;;3.78;2.00;;;;;;;20.95;86.70;98722.72;7269307;40;20256;31
2023/07/30 02:02:58;;;;;;;2.25;2.05;;;;;;;20.95;85.92;98720.81;7269371;40;20352;31
2023/07/30 02:08:16;;;;;;;6.68;2.50;;;;;;;20.96;85.19;98713.44;7281725;39;20294;31
2023/07/30 02:13:49;;;;;;;3.75;2.15;;;;;;;20.89;86.83;98732.75;7273395;40;20253;31
2023/07/30 02:19:06;;;;;;;2.45;2.22;;;;;;;20.92;86.54;98732.28;7269096;39;20272;31
2023/07/30 02:29:44;;;;;;;4.44;2.20;;;;;;;20.86;87.16;98736.00;7274246;39;21114;31
2023/07/30 02:40:06;;;;;;;2.75;2.10;;;;;;;20.85;86.71;98731.59;7252416;40;20273;31
2023/07/30 02:50:47;;;;;;;3.00;2.30;;;;;;;20.93;86.80;98733.13;7309058;39;20261;31
2023/07/30 03:01:23;;;;;;;4.10;2.40;;;;;;;20.88;86.52;98736.59;7311942;39;20276;31
2023/07/30 03:06:56;;;;;;;5.25;2.20;;;;;;;20.95;87.16;98729.06;7294722;39;20244;31
2023/07/30 03:12:28;;;;;;;2.58;2.37;;;;;;;20.96;85.81;98727.16;7263504;39;20265;31
2023/07/30 03:17:48;;;;;;;2.40;2.20;;;;;;;20.99;85.87;98737.59;7233443;40;20249;31
2023/07/30 03:23:24;;;;;;;2.66;2.20;;;;;;;20.95;85.71;98747.41;7233687;40;20260;31
2023/07/30 03:28:41;;;;;;;4.40;2.95;;;;;;;20.94;86.14;98741.09;7151926;40;20348;31
2023/07/30 03:34:13;;;;;;;2.70;2.50;;;;;;;20.93;86.66;98749.56;7163319;40;20258;31
2023/07/30 03:39:49;;;;;;;3.92;2.53;;;;;;;20.94;86.21;98762.16;7105108;40;20313;31
2023/07/30 03:45:19;;;;;;;2.70;2.30;;;;;;;20.88;86.53;98766.72;7154855;40;20246;31
2023/07/30 03:50:39;;;;;;;2.87;2.30;;;;;;;20.85;87.19;98769.09;7195671;40;20254;31
2023/07/30 03:56:12;;;;;;;2.70;2.40;;;;;;;20.88;86.84;98768.63;7202532;40;20292;31
2023/07/30 04:01:44;;;;;;;3.10;2.70;;;;;;;20.92;87.02;98764.34;7221501;40;20238;31
2023/07/30 04:07:16;;;;;;;3.20;2.90;;;;;;;20.91;87.12;98749.78;7216290;40;20264;31
2023/07/30 04:12:49;;;;;;;3.02;2.76;;;;;;;20.85;87.23;98752.66;7209060;40;20246;31
2023/07/30 04:18:06;;;;;;;3.67;3.08;;;;;;;20.79;87.65;98762.72;7242946;40;20294;31
2023/07/30 04:23:23;;;;;;;4.27;3.33;;;;;;;20.78;88.36;98765.69;7243968;40;20359;31
2023/07/30 04:28:59;;;;;;;4.74;3.08;;;;;;;20.81;88.74;98770.66;7282550;39;20323;31
2023/07/30 04:34:17;;;;;;;4.20;3.20;;;;;;;20.83;88.75;98788.53;7312816;39;20252;31
2023/07/30 04:39:51;;;;;;;4.86;3.20;;;;;;;20.84;88.39;98797.59;7334406;39;20263;31
2023/07/30 04:45:25;;;;;;;3.53;2.70;;;;;;;20.79;87.60;98792.00;7303943;39;20342;31
2023/07/30 04:50:57;;;;;;;3.83;2.40;;;;;;;20.84;88.07;98803.09;7243950;40;20275;31
2023/07/30 04:56:15;;;;;;;2.95;2.20;;;;;;;20.77;88.00;98796.87;7241543;40;20316;31
2023/07/30 05:01:51;;;;;;;2.40;2.20;;;;;;;20.74;86.69;98789.16;7223754;40;20245;31
2023/07/30 05:07:09;;;;;;;3.40;2.33;;;;;;;20.81;86.60;98806.28;7181959;40;20262;31
2023/07/30 05:12:40;;;;;;;2.50;2.30;;;;;;;20.67;87.03;98806.56;7218166;40;20253;31
2023/07/30 05:18:14;;;;;;;2.40;2.20;;;;;;;20.52;88.28;98792.53;7213463;40;20262;31
2023/07/30 05:23:32;;;;;;;3.05;2.62;;;;;;;20.67;87.52;98779.16;7229841;40;20241;31
2023/07/30 05:28:49;;;;;;;3.83;3.00;;;;;;;20.76;87.63;98784.25;7200944;40;20340;31
2023/07/30 05:39:29;;;;;;;3.30;3.00;;;;;;;20.86;87.93;98801.75;7252665;40;20354;31
2023/07/30 05:49:51;;;;;;;2.88;2.68;;;;;;;20.78;87.46;98793.91;7297120;39;20277;31
2023/07/30 05:55:21;;;;;;;3.20;2.90;;;;;;;20.72;87.43;98796.78;7292746;39;20287;31
2023/07/30 06:00:56;;;;;;;3.10;2.90;;;;;;;20.69;89.07;98803.59;7245190;40;20336;31
2023/07/30 06:06:29;;;;;;;4.75;3.22;;;;;;;20.75;88.19;98797.16;7216155;40;20261;31
2023/07/30 06:12:04;;;;;;;4.50;3.40;;;;;;;20.71;89.53;98801.44;7203387;40;20258;31
2023/07/30 06:17:22;;;;;;;5.28;3.45;;;;;;;20.60;90.36;98816.81;7206274;40;20332;31
2023/07/30 06:22:39;;;;;;;6.53;3.20;;;;;;;20.52;90.69;98819.09;7182235;40;20262;31
2023/07/30 06:28:15;;;;;;;3.67;3.37;;;;;;;20.52;90.92;98813.63;7171385;40;20293;31
2023/07/30 06:33:50;;;;;;;4.10;3.10;;;;;;;20.54;90.41;98814.19;6915800;40;21292;31
2023/07/30 06:39:07;;;;;;;3.50;3.20;;;;;;;20.63;90.89;98819.06;7133319;40;20244;31
2023/07/30 06:44:43;;;;;;;4.25;2.97;;;;;;;20.62;89.15;98833.81;7143904;40;20319;31
2023/07/30 06:50:00;;;;;;;3.40;3.10;;;;;;;20.61;89.85;98837.66;7189421;40;20245;31
2023/07/30 06:55:32;;;;;;;4.22;2.90;;;;;;;20.73;89.33;98861.44;7222634;40;20241;31
2023/07/30 07:01:05;;;;;;;3.17;2.60;;;;;;;20.60;89.25;98862.53;7253404;40;20240;31
2023/07/30 07:06:40;;;;;;;4.15;2.67;;;;;;;20.58;88.12;98864.66;7227748;40;20285;31
2023/07/30 07:17:17;;;;;;;2.75;2.50;;;;;;;20.52;87.53;98866.47;7254201;40;20287;31
2023/07/30 07:27:38;;;;;;;3.50;2.40;;;;;;;20.91;85.39;98873.09;7330846;39;20436;31
2023/07/30 07:33:14;;;;;;;3.67;2.40;;;;;;;21.12;83.21;98885.31;7276104;40;20272;31
2023/07/30 07:38:46;;;;;;;5.00;2.20;;;;;;;21.16;81.19;98881.06;7216807;40;20238;31
2023/07/30 07:44:21;;;;;;;2.95;2.20;;;;;;;21.06;81.45;98878.09;7216912;40;20273;31
2023/07/30 07:49:55;;;;;;;3.08;2.35;;;;;;;21.03;81.57;98889.50;7200472;40;20381;31
2023/07/30 07:55:27;;;;;;;6.40;2.30;;;;;;;21.00;79.63;98900.97;7207534;40;21302;31
2023/07/30 08:06:05;;;;;;;3.70;2.20;;;;;;;20.86;77.55;98896.81;7215935;40;20315;31
2023/07/30 08:16:26;;;;;;;2.53;1.95;;;;;;;21.12;78.68;98888.94;7295647;39;21207;31
2023/07/30 08:21:59;;;;;;;2.95;2.20;;;;;;;21.44;77.54;98897.53;7339232;39;20399;31
2023/07/30 08:27:16;;;;;;;2.80;2.40;;;;;;;21.67;76.53;98896.63;7308918;39;21383;31
2023/07/30 08:37:54;;;;;;;2.20;1.90;;;;;;;21.48;74.54;98908.84;7306213;39;20394;31
2023/07/30 08:43:26;;;;;;;2.90;2.20;;;;;;;21.41;75.94;98906.25;7248197;40;20276;31
2023/07/30 08:54:03;;;;;;;3.87;2.22;;;;;;;21.71;75.21;98907.94;7252143;40;21160;31
2023/07/30 09:04:42;;;;;;;4.85;2.40;;;;;;;22.04;72.75;98921.75;7298746;39;20264;31
2023/07/30 09:15:20;;;;;;;3.22;2.40;;;;;;;21.67;73.03;98928.72;7313411;39;21195;31
2023/07/30 09:20:52;;;;;;;3.53;2.20;;;;;;;21.64;71.78;98941.00;7274796;40;20714;31
2023/07/30 09:26:24;;;;;;;2.22;1.90;;;;;;;22.02;69.93;98940.41;7264315;39;20246;31
2023/07/30 09:32:02;;;;;;;2.52;1.92;;;;;;;22.23;69.39;98947.06;7216874;40;20280;31
2023/07/30 09:37:34;;;;;;;3.83;1.90;;;;;;;22.13;69.94;98950.47;7196733;40;20764;31
2023/07/30 09:43:06;;;;;;;2.28;1.80;;;;;;;22.74;66.49;98965.25;7144470;40;20322;31
2023/07/30 09:48:39;;;;;;;3.52;1.76;;;;;;;22.90;65.77;98961.69;7190405;40;20363;31
2023/07/30 09:54:11;;;;;;;5.20;1.70;;;;;;;22.90;64.96;98991.91;7205210;40;20257;31
2023/07/30 09:59:28;;;;;;;2.08;1.50;;;;;;;22.83;65.24;98977.50;7152968;40;20359;31
2023/07/30 10:05:04;;;;;;;3.07;1.50;;;;;;;22.53;65.46;98996.19;7150972;40;20369;31
2023/07/30 10:10:33;;;;;;;2.67;1.58;;;;;;;;;;7153342;40;20263;31
2023/07/30 10:16:05;;;;;;;2.30;1.48;;;;;;;21.75;66.74;99008.72;7219294;40;20300;31
2023/07/30 10:21:41;;;;;;;2.22;1.50;;;;;;;21.70;66.02;99019.59;7230330;40;20295;31
2023/07/30 10:32:17;;;;;;;3.03;1.40;;;;;;;21.81;64.38;99031.59;7270984;40;21336;31
2023/07/30 10:37:50;;;;;;;2.65;1.40;;;;;;;22.20;62.92;99019.81;7276300;40;21157;31
2023/07/30 10:43:31;;;;;;;2.67;1.53;;;;;;;22.89;61.42;99020.47;7264933;40;20243;31
2023/07/30 10:49:03;;;;;;;2.60;1.60;;;;;;;22.74;62.10;99033.97;7273450;40;20482;31
2023/07/30 10:54:36;;;;;;;1.50;1.12;;;;;;;22.47;60.57;99034.56;7272029;40;21272;31
2023/07/30 11:05:12;;;;;;;2.96;1.46;;;;;;;23.00;60.19;99027.78;7250784;40;20283;31
2023/07/30 11:10:43;;;;;;;4.34;1.54;;;;;;;23.67;58.25;99020.28;7197725;40;20402;31
2023/07/30 11:21:22;;;;;;;3.23;1.40;;;;;;;24.17;56.88;99028.34;7250915;40;20374;31
2023/07/30 11:26:58;;;;;;;5.20;1.64;;;;;;;24.08;54.29;99032.63;7222986;40;20250;31
2023/07/30 11:32:33;;;;;;;5.40;1.60;;;;;;;23.81;50.75;99031.72;7233182;40;20253;31
2023/07/30 11:38:05;;;;;;;3.84;1.78;;;;;;;23.73;53.58;99027.53;7238624;40;20269;31
2023/07/30 11:48:42;;;;;;;5.07;1.70;;;;;;;23.68;52.68;99046.72;7231000;40;21152;31
2023/07/30 11:59:19;;;;;;;3.75;1.58;;;;;;;23.63;52.47;99046.63;7242832;40;21204;31
2023/07/30 12:09:59;;;;;;;3.50;1.75;;;;;;;24.42;49.92;99048.97;7278761;40;20314;31
2023/07/30 12:20:21;;;;;;;4.53;1.83;;;;;;;24.58;50.38;99050.78;7274967;40;21342;31
2023/07/30 12:31:02;;;;;;;2.95;1.70;;;;;;;23.96;50.23;99084.22;7305228;39;21464;31
2023/07/30 12:36:22;;;;;;;3.42;1.82;;;;;;;23.85;50.80;99074.19;7293248;39;20278;31
2023/07/30 12:46:58;;;;;;;4.47;2.00;;;;;;;23.83;51.22;99078.28;7297279;40;22505;31
2023/07/30 12:52:18;;;;;;;2.40;1.50;;;;;;;23.88;51.33;99090.19;7261228;40;20331;31
2023/07/30 12:57:38;;;;;;;3.78;1.70;;;;;;;24.41;50.54;99091.41;7241967;40;20265;31
2023/07/30 13:03:12;;;;;;;4.35;1.83;;;;;;;24.61;48.83;99089.72;7255091;39;20361;31
2023/07/30 13:08:47;;;;;;;2.75;1.50;;;;;;;24.58;45.60;99100.41;7267566;40;20264;31
2023/07/30 13:14:07;;;;;;;6.68;1.83;;;;;;;24.13;47.89;99109.78;7241278;40;20484;31
2023/07/30 13:19:39;;;;;;;5.40;1.73;;;;;;;23.89;47.14;99122.13;7254194;39;20335;31
2023/07/30 13:24:56;;;;;;;6.03;1.97;;;;;;;23.59;48.14;99121.72;7239277;40;20281;31
2023/07/30 13:35:31;;;;;;;5.90;1.67;;;;;;;24.05;47.15;99114.91;7273372;40;20319;31
2023/07/30 13:45:55;;;;;;;4.00;1.60;;;;;;;24.74;45.94;99126.22;7275250;40;21142;31
2023/07/30 13:51:32;;;;;;;4.13;1.58;;;;;;;25.08;44.44;99127.69;7234927;40;20257;31
2023/07/30 13:56:51;;;;;;;3.53;1.60;;;;;;;25.27;44.15;99136.41;7215211;40;20250;31
2023/07/30 14:02:08;;;;;;;4.28;1.60;;;;;;;25.01;42.68;99135.34;7054158;40;20251;31
2023/07/30 14:07:41;;;;;;;2.35;1.60;;;;;;;24.90;41.30;99142.69;7216693;40;20807;31
2023/07/30 14:13:13;;;;;;;5.55;1.80;;;;;;;24.90;41.32;99152.88;7200010;40;20266;31
2023/07/30 14:18:48;;;;;;;4.70;1.83;;;;;;;24.78;42.18;99136.47;7181538;40;20241;31
2023/07/30 14:24:23;;;;;;;3.75;1.80;;;;;;;24.60;43.85;99145.09;7165697;40;20261;31
2023/07/30 14:29:54;;;;;;;3.78;1.65;;;;;;;24.63;42.68;99139.91;7108611;40;20260;31
2023/07/30 14:35:29;;;;;;;4.68;1.70;;;;;;;24.63;42.70;99147.31;7152060;40;20313;31
2023/07/30 14:46:04;;;;;;;3.03;1.50;;;;;;;24.58;43.69;99141.75;7128537;40;21272;31
2023/07/30 14:51:39;;;;;;;3.95;1.35;;;;;;;24.86;42.67;99133.28;7186843;40;20238;31
2023/07/30 14:57:11;;;;;;;2.87;1.50;;;;;;;24.87;43.31;99134.94;7186778;40;20346;31
2023/07/30 15:07:49;;;;;;;3.40;1.60;;;;;;;25.20;42.55;99136.59;7289465;39;20317;31
2023/07/30 15:13:09;;;;;;;5.35;1.70;;;;;;;25.11;42.62;99136.25;7275686;40;20261;31
2023/07/30 15:18:26;;;;;;;4.82;1.87;;;;;;;25.23;42.96;99132.50;7249304;40;20438;31
2023/07/30 15:24:02;;;;;;;3.83;1.83;;;;;;;24.91;41.52;99127.81;7281570;39;20301;31
2023/07/30 15:29:37;;;;;;;5.45;2.00;;;;;;;24.73;42.09;99133.66;7273547;40;20257;31
2023/07/30 15:35:13;;;;;;;4.72;1.75;;;;;;;24.74;41.88;99135.34;7176431;40;20315;31
2023/07/30 15:40:48;;;;;;;4.15;1.75;;;;;;;24.58;43.10;99144.50;7176212;40;20255;31
2023/07/30 15:46:08;;;;;;;4.15;1.80;;;;;;;24.58;43.28;99136.25;7184520;40;20251;31
2023/07/30 15:51:43;;;;;;;5.83;2.00;;;;;;;24.78;43.45;99130.97;7203744;40;20261;31
2023/07/30 15:57:20;;;;;;;3.45;1.90;;;;;;;24.57;43.39;99134.59;7230989;40;20260;31
2023/07/30 16:02:38;;;;;;;4.80;1.67;;;;;;;24.62;44.22;99140.97;7199695;40;20409;31
2023/07/30 16:08:09;;;;;;;4.15;1.80;;;;;;;24.57;44.97;99134.59;7213560;40;20265;31
2023/07/30 16:13:45;;;;;;;4.18;1.77;;;;;;;24.25;45.64;99134.50;7193651;40;20340;31
2023/07/30 16:19:17;;;;;;;4.22;1.73;;;;;;;24.07;45.21;99138.38;7200396;40;20270;31
2023/07/30 16:29:55;;;;;;;3.78;1.90;;;;;;;24.01;44.98;99142.13;7180484;40;21515;31
2023/07/30 16:40:31;;;;;;;4.50;1.90;;;;;;;23.86;45.79;99136.44;7239759;40;21295;31
2023/07/30 16:46:07;;;;;;;4.80;1.85;;;;;;;23.79;46.79;99142.09;7217165;40;20252;31
2023/07/30 16:51:42;;;;;;;4.28;1.80;;;;;;;23.86;46.65;99139.19;7215947;40;20398;31
2023/07/30 16:57:03;;;;;;;4.30;1.67;;;;;;;23.90;47.31;99148.59;7274759;40;20240;31
2023/07/30 17:02:34;;;;;;;4.42;1.78;;;;;;;23.90;46.16;99151.34;7213765;40;20261;31
2023/07/30 17:08:07;;;;;;;4.28;1.87;;;;;;;23.84;46.37;99151.50;7199035;40;20277;31
2023/07/30 17:13:44;;;;;;;5.05;1.90;;;;;;;23.64;47.16;99149.31;7164117;40;20484;31
2023/07/30 17:19:17;;;;;;;6.03;1.90;;;;;;;23.36;48.12;99151.03;7109616;40;20338;31
2023/07/30 17:24:55;;;;;;;4.67;1.70;;;;;;;23.19;47.97;99146.63;7187578;40;20242;31
2023/07/30 17:30:22;;;;;;;3.67;1.90;;;;;;;23.11;47.72;99150.62;7213671;40;20265;31
2023/07/30 17:35:58;;;;;;;4.90;2.00;;;;;;;23.13;48.20;99148.44;7215743;40;20331;31
2023/07/30 17:41:19;;;;;;;4.53;1.92;;;;;;;23.03;48.55;99145.53;7252582;40;20261;31
2023/07/30 17:46:39;;;;;;;3.70;1.62;;;;;;;23.04;48.87;99149.94;7222424;40;20295;31
2023/07/30 17:57:16;;;;;;;4.10;1.70;;;;;;;22.79;49.70;99149.50;7230618;40;21129;31
2023/07/30 18:02:37;;;;;;;5.10;1.90;;;;;;;22.73;48.86;99156.00;7229148;40;20334;31
2023/07/30 18:07:57;;;;;;;2.65;1.58;;;;;;;22.79;48.93;99158.56;7248131;40;20335;31
2023/07/30 18:13:29;;;;;;;3.78;1.60;;;;;;;22.71;49.37;99166.38;7252987;40;20249;31
2023/07/30 18:18:49;;;;;;;3.53;1.80;;;;;;;22.69;49.98;99163.00;7251686;40;20353;31
2023/07/30 18:24:09;;;;;;;5.18;2.00;;;;;;;22.58;50.18;99169.38;7274649;40;20390;31
2023/07/30 18:29:41;;;;;;;7.87;2.28;;;;;;;22.45;50.79;99173.25;7260727;39;20264;31
2023/07/30 18:35:00;;;;;;;4.82;1.90;;;;;;;22.43;51.22;99167.16;7212549;40;20319;31
2023/07/30 18:40:32;;;;;;;4.35;1.80;;;;;;;22.35;50.96;99165.66;7221338;40;20332;31
2023/07/30 18:46:06;;;;;;;6.28;1.70;;;;;;;22.27;51.46;99179.75;7187792;40;20254;31
2023/07/30 18:51:24;;;;;;;4.60;1.80;;;;;;;22.27;51.82;99179.75;7115637;40;20345;31
2023/07/30 18:56:58;;;;;;;4.75;1.90;;;;;;;22.13;51.46;99174.78;7139692;40;20262;31
2023/07/30 19:02:32;;;;;;;4.87;1.90;;;;;;;22.06;51.82;99174.91;7139741;40;20290;31
2023/07/30 19:13:08;;;;;;;4.00;1.85;;;;;;;21.90;51.97;99175.59;7273044;40;21206;31
2023/07/30 19:18:41;;;;;;;7.33;2.07;;;;;;;21.79;52.05;99179.19;7254722;40;20261;31
2023/07/30 19:24:11;;;;;;;7.53;1.90;;;;;;;21.71;52.25;99187.81;7219752;40;20340;31
2023/07/30 19:29:43;;;;;;;3.60;1.83;;;;;;;21.66;52.82;99191.25;7176182;40;20426;31
2023/07/30 19:35:16;;;;;;;4.13;1.63;;;;;;;21.55;53.23;99198.41;7236240;40;20265;31
2023/07/30 19:40:53;;;;;;;4.18;1.90;;;;;;;21.48;53.82;99208.66;7225651;40;21108;31
2023/07/30 19:46:08;;;;;;;7.30;1.90;;;;;;;21.50;54.11;99211.97;7227165;40;21215;31
2023/07/30 19:51:38;;;;;;;4.95;1.90;;;;;;;21.49;53.98;99207.59;7222801;40;20273;31
2023/07/30 19:56:58;;;;;;;4.03;1.83;;;;;;;21.39;54.67;99214.72;7241105;40;20331;31
2023/07/30 20:02:33;;;;;;;3.90;2.00;;;;;;;21.34;54.18;99212.69;7263056;40;20384;31
2023/07/30 20:13:13;;;;;;;3.65;1.70;;;;;;;21.18;54.73;99199.66;7234096;40;20404;31
2023/07/30 20:18:31;;;;;;;3.60;1.92;;;;;;;21.14;54.62;99187.50;7275321;39;20261;31
2023/07/30 20:24:03;;;;;;;5.40;2.10;;;;;;;21.15;55.28;99182.84;7303384;39;20240;31
2023/07/30 20:29:36;;;;;;;6.32;2.00;;;;;;;21.17;55.35;99184.28;7254742;40;20250;31
2023/07/30 20:34:53;;;;;;;5.82;2.00;;;;;;;21.07;55.37;99184.81;7212076;40;20277;31
2023/07/30 20:40:26;;;;;;;7.10;2.10;;;;;;;20.97;55.19;99190.06;7185777;40;20246;31
2023/07/30 20:45:59;;;;;;;3.55;1.67;;;;;;;20.87;55.19;99188.94;7164327;40;20277;31
2023/07/30 20:51:31;;;;;;;4.20;1.75;;;;;;;20.77;56.25;99185.91;6944153;40;21480;31
2023/07/30 20:56:48;;;;;;;3.40;1.90;;;;;;;20.78;55.42;99188.44;7214692;40;22153;31
2023/07/30 21:02:20;;;;;;;3.30;1.66;;;;;;;20.83;56.37;99193.22;7191847;40;20463;31
2023/07/30 21:07:53;;;;;;;5.85;1.90;;;;;;;20.82;55.24;99191.53;7164195;40;21813;31
2023/07/30 21:13:10;;;;;;;5.10;2.25;;;;;;;20.78;56.18;99190.31;7170158;40;20309;31
2023/07/30 21:18:43;;;;;;;5.00;2.00;;;;;;;20.80;55.12;99190.94;7213541;40;20335;31
2023/07/30 21:24:15;;;;;;;3.15;1.75;;;;;;;20.79;56.14;99195.59;7212131;40;20306;31
2023/07/30 21:29:47;;;;;;;8.60;1.80;;;;;;;20.75;56.77;99199.03;7186420;40;20320;31
2023/07/30 21:35:21;;;;;;;4.10;2.00;;;;;;;20.75;56.14;99204.50;7183854;40;20286;31
2023/07/30 21:40:38;;;;;;;4.55;1.90;;;;;;;20.77;56.44;99188.66;7171438;40;20242;31
2023/07/30 21:46:10;;;;;;;5.32;1.90;;;;;;;20.57;58.71;99206.22;7186880;40;20242;31
2023/07/30 21:51:43;;;;;;;4.30;1.73;;;;;;;20.46;58.10;99206.97;7165915;40;20266;31
2023/07/30 21:57:00;;;;;;;3.85;1.60;;;;;;;20.41;58.91;99195.03;7177442;40;20270;31
2023/07/30 22:02:32;;;;;;;2.85;1.73;;;;;;;20.38;58.90;99192.75;7212148;40;20416;31
2023/07/30 22:08:05;;;;;;;6.50;2.20;;;;;;;20.30;59.63;99176.66;7215660;40;20262;31
2023/07/30 22:13:22;;;;;;;9.73;1.98;;;;;;;20.31;60.33;99181.06;7228316;40;20303;31
2023/07/30 22:18:57;;;;;;;4.05;1.60;;;;;;;20.24;59.80;99172.88;7219132;40;20283;31
2023/07/30 22:29:38;;;;;;;3.78;1.80;;;;;;;20.20;60.06;99163.47;7253729;39;20275;31
2023/07/30 22:40:17;;;;;;;6.30;2.05;;;;;;;20.29;60.04;99153.03;7275980;39;20269;31
2023/07/30 22:51:10;;;;;;;3.37;1.90;;;;;;;20.22;59.80;99148.50;7278778;39;20294;31
2023/07/30 22:56:45;;;;;;;5.83;1.97;;;;;;;20.17;60.58;99156.56;7257481;40;20269;31
2023/07/30 23:02:17;;;;;;;7.35;2.30;;;;;;;20.13;57.86;99163.56;7185042;40;20293;31
2023/07/30 23:07:53;;;;;;;3.90;1.93;;;;;;;20.04;58.43;99155.87;7216380;40;20356;31
2023/07/30 23:13:26;;;;;;;5.40;2.10;;;;;;;20.03;57.93;99154.19;7215053;40;20307;31
2023/07/30 23:19:01;;;;;;;3.33;1.80;;;;;;;20.04;58.40;99151.25;7193461;40;20262;31
2023/07/30 23:24:37;;;;;;;5.63;1.73;;;;;;;20.03;57.07;99146.00;7203716;40;20246;31
2023/07/30 23:29:57;;;;;;;3.83;1.98;;;;;;;19.96;57.41;99145.25;7184273;40;20269;31
2023/07/30 23:35:15;;;;;;;4.57;1.93;;;;;;;19.89;58.05;99149.94;7234642;40;20258;31
2023/07/30 23:40:48;;;;;;;5.00;2.23;;;;;;;19.86;60.01;99153.97;7234178;40;20257;31
2023/07/30 23:46:23;;;;;;;4.30;2.20;;;;;;;19.76;62.05;99164.59;7192953;40;20347;31
2023/07/30 23:51:58;;;;;;;5.00;2.33;;;;;;;19.55;62.24;99163.13;7232512;40;20272;31
2023/07/30 23:57:34;;;;;;;3.97;1.80;;;;;;;19.55;62.97;99163.13;7220577;40;20379;31
